Time;durP1;ratioP1;P1;durP2;ratioP2;P2;SDS_P1;SDS_P2;PMS_P1;PMS_P2;Temp;Humidity;BMP_temperature;BMP_pressure;BME280_temperature;BME280_humidity;BME280_pressure;Samples;Min_cycle;Max_cycle;Signal;HPM_P1;HPM_P2
2024/03/12 00:00:53;;;;;;;12.90;6.80;;;;;;;;;;4995285;28;20037;-81
2024/03/12 00:03:19;;;;;;;15.15;6.78;;;;;;;;;;5022935;28;20062;-82
2024/03/12 00:05:45;;;;;;;13.75;7.13;;;;;;;;;;5008324;28;20080;-81
2024/03/12 00:08:11;;;;;;;17.50;7.90;;;;;;;;;;5008199;28;20112;-81
2024/03/12 00:10:38;;;;;;;13.98;7.63;;;;;;;;;;5019723;28;20084;-81
2024/03/12 00:13:06;;;;;;;16.20;8.13;;;;;;;;;;4992445;28;20031;-82
2024/03/12 00:15:36;;;;;;;18.98;8.13;;;;;;;;;;4999565;28;20034;-82
2024/03/12 00:18:04;;;;;;;20.48;9.57;;;;;;;;;;5021735;28;20038;-80
2024/03/12 00:20:33;;;;;;;18.25;9.10;;;;;;;;;;5036128;28;20034;-82
2024/03/12 00:22:59;;;;;;;;;;;;;;;;;;5012382;28;20034;-80
2024/03/12 00:25:30;;;;;;;14.35;7.95;;;;;;;;;;5024539;28;19910;-82
2024/03/12 00:27:56;;;;;;;15.55;7.00;;;;;;;;;;5013928;28;20679;-82
2024/03/12 00:30:25;;;;;;;12.73;6.60;;;;;;;;;;5009095;28;20045;-82
2024/03/12 00:33:03;;;;;;;12.98;7.53;;;;;;;;;;5004558;28;20053;-81
2024/03/12 00:35:29;;;;;;;;;;;;;;;;;;5012895;28;20049;-81
2024/03/12 00:37:59;;;;;;;14.18;7.63;;;;;;;;;;5017154;28;19917;-82
2024/03/12 00:40:36;;;;;;;17.48;8.40;;;;;;;;;;5007702;28;20034;-81
2024/03/12 00:43:04;;;;;;;17.05;8.23;;;;;;;;;;4972068;28;20026;-82
2024/03/12 00:45:36;;;;;;;17.50;8.40;;;;;;;;;;5023218;28;20026;-82
2024/03/12 00:48:03;;;;;;;21.80;9.48;;;;;;;;;;5023423;28;20030;-82
2024/03/12 00:50:29;;;;;;;15.82;8.05;;;;;;;;;;5011145;28;20033;-82
2024/03/12 00:52:54;;;;;;;15.38;8.23;;;;;;;;;;4995549;28;20038;-80
2024/03/12 00:55:23;;;;;;;17.55;8.68;;;;;;;;;;5014997;28;20036;-82
2024/03/12 00:57:50;;;;;;;15.30;7.53;;;;;;;;;;4996271;28;20416;-80
2024/03/12 01:00:17;;;;;;;12.55;7.55;;;;;;;;;;5002157;28;20018;-81
2024/03/12 01:02:44;;;;;;;13.57;7.35;;;;;;;;;;4991458;28;20022;-81
2024/03/12 01:05:12;;;;;;;12.25;6.55;;;;;;;;;;5011029;28;20053;-80
2024/03/12 01:07:38;;;;;;;12.90;7.68;;;;;;;;;;5026470;28;20071;-80
2024/03/12 01:10:06;;;;;;;15.00;7.40;;;;;;;;;;5014608;28;20041;-80
2024/03/12 01:12:32;;;;;;;14.40;7.18;;;;;;;;;;5001584;28;20054;-81
2024/03/12 01:14:58;;;;;;;16.15;7.88;;;;;;;;;;5005610;28;20059;-81
2024/03/12 01:17:24;;;;;;;14.50;7.75;;;;;;;;;;5006971;28;20066;-81
2024/03/12 01:19:49;;;;;;;14.00;7.00;;;;;;;;;;5000134;28;20053;-81
2024/03/12 01:22:15;;;;;;;15.20;8.07;;;;;;;;;;5006388;28;20033;-80
2024/03/12 01:24:41;;;;;;;13.68;7.47;;;;;;;;;;5000863;28;20026;-81
2024/03/12 01:27:07;;;;;;;14.77;8.27;;;;;;;;;;4999717;28;20482;-81
2024/03/12 01:29:33;;;;;;;13.82;7.28;;;;;;;;;;5007797;28;20392;-80
2024/03/12 01:32:00;;;;;;;17.98;8.60;;;;;;;;;;5006551;28;20070;-82
2024/03/12 01:34:26;;;;;;;17.67;8.15;;;;;;;;;;5005467;28;20046;-81
2024/03/12 01:36:53;;;;;;;23.52;8.20;;;;;;;;;;4999283;28;20022;-81
2024/03/12 01:39:25;;;;;;;13.27;7.75;;;;;;;;;;4997848;28;20038;-82
2024/03/12 01:41:56;;;;;;;16.63;8.60;;;;;;;;;;5038491;28;20089;-82
2024/03/12 01:44:23;;;;;;;14.52;7.80;;;;;;;;;;4991123;28;20481;-81
2024/03/12 01:46:49;;;;;;;13.45;7.97;;;;;;;;;;5039597;28;20076;-82
2024/03/12 01:49:17;;;;;;;18.80;7.88;;;;;;;;;;5004961;28;20469;-81
2024/03/12 01:51:44;;;;;;;13.90;7.90;;;;;;;;;;5002758;28;20052;-81
2024/03/12 01:54:10;;;;;;;13.90;8.38;;;;;;;;;;5013866;28;20026;-80
2024/03/12 01:56:36;;;;;;;11.70;7.55;;;;;;;;;;4996202;28;20080;-80
2024/03/12 01:59:01;;;;;;;16.42;8.32;;;;;;;;;;5027263;28;20029;-82
2024/03/12 02:01:28;;;;;;;15.10;7.97;;;;;;;;;;5023224;28;20033;-81
2024/03/12 02:03:54;;;;;;;15.25;8.35;;;;;;;;;;5014326;28;20030;-81
2024/03/12 02:06:21;;;;;;;14.88;8.20;;;;;;;;;;5005254;28;20027;-80
2024/03/12 02:08:48;;;;;;;20.40;8.45;;;;;;;;;;5023472;28;20385;-81
2024/03/12 02:11:15;;;;;;;19.30;8.30;;;;;;;;;;4991683;28;20022;-81
2024/03/12 02:13:41;;;;;;;16.05;7.85;;;;;;;;;;4986086;28;20049;-81
2024/03/12 02:16:08;;;;;;;18.80;7.70;;;;;;;;;;5019475;28;20482;-80
2024/03/12 02:18:34;;;;;;;13.02;7.93;;;;;;;;;;5009119;28;20022;-82
2024/03/12 02:20:59;;;;;;;18.67;8.25;;;;;;;;;;4992698;28;20035;-81
2024/03/12 02:23:41;;;;;;;13.95;7.78;;;;;;;;;;5000999;28;20053;-81
2024/03/12 02:26:09;;;;;;;15.98;7.85;;;;;;;;;;5017564;28;20083;-80
2024/03/12 02:28:38;;;;;;;16.23;8.53;;;;;;;;;;5008337;28;20026;-81
2024/03/12 02:31:05;;;;;;;12.65;7.03;;;;;;;;;;4997209;28;20041;-81
2024/03/12 02:33:34;;;;;;;16.23;8.50;;;;;;;;;;5007362;28;20401;-80
2024/03/12 02:36:01;;;;;;;17.23;8.30;;;;;;;;;;5005444;28;20362;-81
2024/03/12 02:38:29;;;;;;;15.38;8.10;;;;;;;;;;5012269;28;20033;-81
2024/03/12 02:40:55;;;;;;;12.45;8.02;;;;;;;;;;4992431;28;20052;-82
2024/03/12 02:43:21;;;;;;;14.82;7.90;;;;;;;;;;5003899;28;20827;-82
2024/03/12 02:45:47;;;;;;;16.30;8.18;;;;;;;;;;4994707;28;20031;-82
2024/03/12 02:48:15;;;;;;;14.35;7.93;;;;;;;;;;5012936;28;20042;-81
2024/03/12 02:50:42;;;;;;;19.08;7.70;;;;;;;;;;4995920;28;20417;-81
2024/03/12 02:53:08;;;;;;;13.48;7.60;;;;;;;;;;5003714;28;20062;-82
2024/03/12 02:55:34;;;;;;;14.90;8.00;;;;;;;;;;5006337;28;20030;-81
2024/03/12 02:58:01;;;;;;;15.25;8.35;;;;;;;;;;4986469;28;20157;-81
2024/03/12 03:00:28;;;;;;;13.35;7.07;;;;;;;;;;5007110;28;20041;-81
2024/03/12 03:02:54;;;;;;;16.55;8.20;;;;;;;;;;4995422;28;20061;-82
2024/03/12 03:05:20;;;;;;;17.55;8.20;;;;;;;;;;5000654;28;20105;-82
2024/03/12 03:07:48;;;;;;;13.85;7.72;;;;;;;;;;5020774;28;20057;-81
2024/03/12 03:10:14;;;;;;;16.25;7.85;;;;;;;;;;5009028;28;20339;-81
2024/03/12 03:12:43;;;;;;;15.38;8.10;;;;;;;;;;5021916;28;20447;-80
2024/03/12 03:15:11;;;;;;;13.38;7.45;;;;;;;;;;4996818;28;20034;-80
2024/03/12 03:17:42;;;;;;;13.23;7.80;;;;;;;;;;5015702;28;20097;-82
2024/03/12 03:20:11;;;;;;;12.15;7.13;;;;;;;;;;4996762;28;20038;-80
2024/03/12 03:22:37;;;;;;;14.73;7.82;;;;;;;;;;4993299;28;20026;-82
2024/03/12 03:25:02;;;;;;;17.92;7.90;;;;;;;;;;4992030;28;20026;-82
2024/03/12 03:27:29;;;;;;;16.05;7.50;;;;;;;;;;5007284;28;20092;-82
2024/03/12 03:29:59;;;;;;;17.75;7.93;;;;;;;;;;4993709;28;20030;-82
2024/03/12 03:32:25;;;;;;;12.45;7.50;;;;;;;;;;5009489;28;20038;-81
2024/03/12 03:34:52;;;;;;;15.80;8.45;;;;;;;;;;5009766;28;20109;-81
2024/03/12 03:37:20;;;;;;;15.30;7.90;;;;;;;;;;5014241;28;20046;-81
2024/03/12 03:39:46;;;;;;;15.15;8.07;;;;;;;;;;5000867;28;20066;-81
2024/03/12 03:42:12;;;;;;;14.38;8.13;;;;;;;;;;5008289;28;20511;-82
2024/03/12 03:44:38;;;;;;;14.18;7.60;;;;;;;;;;5010932;28;20061;-81
2024/03/12 03:47:04;;;;;;;14.07;8.27;;;;;;;;;;5029100;28;20033;-82
2024/03/12 03:49:30;;;;;;;12.18;7.40;;;;;;;;;;5011545;28;20014;-80
2024/03/12 03:51:56;;;;;;;16.15;7.35;;;;;;;;;;5010742;28;20017;-82
2024/03/12 03:54:21;;;;;;;13.52;7.90;;;;;;;;;;4997889;28;20106;-81
2024/03/12 03:56:47;;;;;;;12.52;7.53;;;;;;;;;;5028171;28;20109;-80
2024/03/12 03:59:16;;;;;;;14.13;7.85;;;;;;;;;;5010048;28;20034;-81
2024/03/12 04:01:41;;;;;;;;;;;;;;;;;;5008630;28;20053;-82
2024/03/12 04:04:10;;;;;;;20.17;7.68;;;;;;;;;;5013916;28;19931;-82
2024/03/12 04:06:36;;;;;;;15.32;7.70;;;;;;;;;;5010665;28;20029;-82
2024/03/12 04:09:04;;;;;;;12.18;7.47;;;;;;;;;;5006002;28;20044;-82
2024/03/12 04:11:30;;;;;;;12.38;7.78;;;;;;;;;;5020017;28;20401;-81
2024/03/12 04:13:58;;;;;;;13.07;8.02;;;;;;;;;;5007244;28;20050;-81
2024/03/12 04:16:24;;;;;;;21.17;8.43;;;;;;;;;;4999548;28;20220;-82
2024/03/12 04:18:50;;;;;;;13.77;7.55;;;;;;;;;;4992809;28;20041;-80
2024/03/12 04:21:16;;;;;;;19.65;7.63;;;;;;;;;;5018944;28;20036;-81
2024/03/12 04:23:45;;;;;;;16.65;7.80;;;;;;;;;;5014160;28;20030;-82
2024/03/12 04:26:11;;;;;;;16.23;8.23;;;;;;;;;;4995060;28;20122;-80
2024/03/12 04:28:38;;;;;;;18.40;8.23;;;;;;;;;;5001176;28;20041;-81
2024/03/12 04:31:07;;;;;;;18.00;7.82;;;;;;;;;;5002015;28;20042;-81
2024/03/12 04:33:34;;;;;;;15.23;7.32;;;;;;;;;;5005632;28;20481;-80
2024/03/12 04:36:00;;;;;;;14.45;7.60;;;;;;;;;;5015726;28;20030;-82
2024/03/12 04:38:26;;;;;;;13.50;7.47;;;;;;;;;;5023346;28;20034;-82
2024/03/12 04:40:51;;;;;;;26.70;8.45;;;;;;;;;;5002533;28;20045;-82
2024/03/12 04:43:18;;;;;;;23.25;11.13;;;;;;;;;;4999471;28;20034;-80
2024/03/12 04:45:44;;;;;;;15.60;7.60;;;;;;;;;;5007370;28;20038;-81
2024/03/12 04:48:11;;;;;;;14.10;7.78;;;;;;;;;;4987695;28;20037;-81
2024/03/12 04:50:37;;;;;;;16.95;7.00;;;;;;;;;;4991303;28;20069;-82
2024/03/12 04:53:03;;;;;;;14.15;7.40;;;;;;;;;;5013304;28;20038;-82
2024/03/12 04:55:29;;;;;;;12.75;6.88;;;;;;;;;;5043715;28;20038;-82
2024/03/12 04:57:54;;;;;;;14.30;8.07;;;;;;;;;;5025923;28;20034;-81
2024/03/12 05:00:21;;;;;;;16.60;7.05;;;;;;;;;;5009487;28;20074;-81
2024/03/12 05:02:47;;;;;;;14.98;7.85;;;;;;;;;;5013853;28;20038;-81
2024/03/12 05:05:20;;;;;;;13.45;6.70;;;;;;;;;;4998515;28;20029;-82
2024/03/12 05:07:46;;;;;;;16.08;7.15;;;;;;;;;;4987139;28;20034;-82
2024/03/12 05:10:12;;;;;;;15.40;6.80;;;;;;;;;;5001411;28;20040;-81
2024/03/12 05:12:38;;;;;;;15.20;6.60;;;;;;;;;;4994657;28;20041;-82
2024/03/12 05:15:04;;;;;;;11.48;6.10;;;;;;;;;;4990705;28;20475;-82
2024/03/12 05:17:29;;;;;;;13.23;7.03;;;;;;;;;;5028806;28;20037;-82
2024/03/12 05:19:55;;;;;;;18.40;6.95;;;;;;;;;;5009295;28;20124;-82
2024/03/12 05:22:22;;;;;;;10.10;5.75;;;;;;;;;;4989003;28;20499;-82
2024/03/12 05:24:47;;;;;;;12.90;6.40;;;;;;;;;;4995713;28;20030;-81
2024/03/12 05:27:21;;;;;;;15.40;6.43;;;;;;;;;;5008127;28;20073;-83
2024/03/12 05:29:52;;;;;;;14.38;6.78;;;;;;;;;;5003544;28;20025;-81
2024/03/12 05:32:18;;;;;;;13.80;6.32;;;;;;;;;;4999958;28;20127;-80
2024/03/12 05:34:47;;;;;;;10.38;5.68;;;;;;;;;;5001806;28;20069;-80
2024/03/12 05:37:40;;;;;;;10.80;5.85;;;;;;;;;;5004659;28;20080;-81
2024/03/12 05:40:18;;;;;;;12.65;6.18;;;;;;;;;;4996947;28;20029;-81
2024/03/12 05:48:13;;;;;;;14.55;5.75;;;;;;;;;;5007854;28;20030;-80
2024/03/12 05:50:39;;;;;;;11.35;5.80;;;;;;;;;;4992919;28;20089;-81
2024/03/12 05:53:04;;;;;;;13.10;6.53;;;;;;;;;;4994482;28;20049;-80
2024/03/12 05:55:30;;;;;;;11.55;5.53;;;;;;;;;;5025154;28;20436;-82
2024/03/12 05:57:56;;;;;;;20.15;5.95;;;;;;;;;;4990662;28;20066;-81
2024/03/12 06:00:21;;;;;;;9.80;5.05;;;;;;;;;;5021080;28;20708;-81
2024/03/12 06:02:47;;;;;;;11.50;5.82;;;;;;;;;;5008080;28;20029;-80
2024/03/12 06:05:12;;;;;;;12.40;5.70;;;;;;;;;;4986208;28;20030;-80
2024/03/12 06:07:42;;;;;;;12.45;5.00;;;;;;;;;;5013064;28;20050;-82
2024/03/12 06:10:08;;;;;;;8.18;4.45;;;;;;;;;;5010327;28;20485;-83
2024/03/12 06:12:33;;;;;;;10.05;5.20;;;;;;;;;;5003853;28;20165;-82
2024/03/12 06:14:59;;;;;;;9.60;4.97;;;;;;;;;;5005238;28;20062;-81
2024/03/12 06:17:26;;;;;;;10.35;5.60;;;;;;;;;;5003913;28;20037;-82
2024/03/12 06:19:51;;;;;;;11.50;4.82;;;;;;;;;;5010633;28;20079;-82
2024/03/12 06:22:17;;;;;;;13.70;5.38;;;;;;;;;;4999319;28;20105;-80
2024/03/12 06:24:43;;;;;;;8.45;5.22;;;;;;;;;;4998453;28;20114;-80
2024/03/12 06:27:09;;;;;;;13.23;5.18;;;;;;;;;;5028796;28;20091;-82
2024/03/12 06:29:34;;;;;;;10.07;5.30;;;;;;;;;;5009129;28;20048;-82
2024/03/12 06:32:00;;;;;;;16.25;4.80;;;;;;;;;;5019658;28;20041;-81
2024/03/12 06:34:28;;;;;;;9.55;5.18;;;;;;;;;;4994530;28;20121;-82
2024/03/12 06:36:59;;;;;;;11.75;4.53;;;;;;;;;;5023085;28;20021;-81
2024/03/12 06:39:31;;;;;;;9.60;4.68;;;;;;;;;;4996681;28;20034;-82
2024/03/12 06:42:07;;;;;;;8.15;4.35;;;;;;;;;;5007522;28;20069;-82
2024/03/12 06:44:42;;;;;;;9.05;4.30;;;;;;;;;;5003947;28;20032;-80
2024/03/12 06:47:09;;;;;;;9.75;4.32;;;;;;;;;;5006356;28;20041;-82
2024/03/12 06:49:35;;;;;;;10.35;4.10;;;;;;;;;;5001772;28;20480;-83
2024/03/12 06:52:02;;;;;;;6.78;4.30;;;;;;;;;;5004357;28;20034;-82
2024/03/12 06:54:27;;;;;;;9.65;4.68;;;;;;;;;;5031607;28;20033;-82
2024/03/12 06:56:53;;;;;;;9.98;4.85;;;;;;;;;;5002240;28;20045;-82
2024/03/12 06:59:21;;;;;;;12.55;6.88;;;;;;;;;;5018618;28;20028;-82
2024/03/12 07:01:53;;;;;;;7.25;4.50;;;;;;;;;;4996955;28;20061;-82
2024/03/12 07:04:19;;;;;;;13.90;5.95;;;;;;;;;;4996598;28;20030;-82
2024/03/12 07:06:45;;;;;;;12.25;6.30;;;;;;;;;;5005494;28;20029;-82
2024/03/12 07:09:22;;;;;;;13.27;4.82;;;;;;;;;;5025214;28;20056;-82
2024/03/12 07:11:48;;;;;;;6.78;3.88;;;;;;;;;;4985412;28;20098;-82
2024/03/12 07:14:23;;;;;;;12.18;4.35;;;;;;;;;;5014548;28;20035;-81
2024/03/12 07:16:52;;;;;;;11.52;4.25;;;;;;;;;;5013824;28;20037;-81
2024/03/12 07:19:17;;;;;;;;;;;;;;;;;;4993102;28;20106;-80
2024/03/12 07:21:43;;;;;;;8.88;4.68;;;;;;;;;;5019632;28;19913;-81
2024/03/12 07:24:11;;;;;;;7.82;4.00;;;;;;;;;;5008737;28;20038;-82
2024/03/12 07:26:37;;;;;;;10.68;3.60;;;;;;;;;;5009574;28;20034;-82
2024/03/12 07:29:06;;;;;;;8.13;3.60;;;;;;;;;;4990870;28;20404;-81
2024/03/12 07:31:33;;;;;;;6.88;3.75;;;;;;;;;;5002563;28;20041;-81
2024/03/12 07:34:00;;;;;;;14.88;4.32;;;;;;;;;;5020593;28;20038;-82
2024/03/12 07:36:26;;;;;;;11.75;4.15;;;;;;;;;;4997834;28;20034;-81
2024/03/12 07:38:52;;;;;;;12.60;4.30;;;;;;;;;;5006039;28;20041;-82
2024/03/12 07:41:18;;;;;;;10.30;4.10;;;;;;;;;;4994865;28;20033;-82
2024/03/12 07:43:44;;;;;;;8.60;4.43;;;;;;;;;;5003093;28;20026;-81
2024/03/12 07:46:11;;;;;;;12.25;3.85;;;;;;;;;;5014816;28;20052;-84
2024/03/12 07:48:37;;;;;;;8.90;4.10;;;;;;;;;;4992075;28;20061;-82
2024/03/12 07:51:05;;;;;;;10.63;3.92;;;;;;;;;;5008384;28;20397;-81
2024/03/12 07:53:34;;;;;;;8.67;3.73;;;;;;;;;;4996122;28;20118;-82
2024/03/12 07:56:00;;;;;;;8.18;3.72;;;;;;;;;;5010940;28;20382;-82
2024/03/12 07:58:28;;;;;;;7.97;3.72;;;;;;;;;;5045314;28;20057;-82
2024/03/12 08:00:54;;;;;;;8.25;3.72;;;;;;;;;;5000921;28;20033;-81
2024/03/12 08:03:20;;;;;;;8.98;4.20;;;;;;;;;;5013730;28;20053;-82
2024/03/12 08:05:46;;;;;;;13.30;4.47;;;;;;;;;;4991363;28;20037;-82
2024/03/12 08:08:12;;;;;;;21.90;4.78;;;;;;;;;;4995528;28;20022;-82
2024/03/12 08:10:38;;;;;;;6.97;3.50;;;;;;;;;;5005146;28;20037;-81
2024/03/12 08:13:05;;;;;;;9.63;4.10;;;;;;;;;;4972362;28;20026;-81
2024/03/12 08:15:31;;;;;;;11.57;4.05;;;;;;;;;;5026790;28;20034;-81
2024/03/12 08:17:57;;;;;;;8.95;4.03;;;;;;;;;;5015493;28;20457;-81
2024/03/12 08:20:23;;;;;;;7.80;3.22;;;;;;;;;;4980489;28;20406;-80
2024/03/12 08:22:49;;;;;;;8.65;3.97;;;;;;;;;;5010083;28;20030;-79
2024/03/12 08:25:16;;;;;;;6.38;3.10;;;;;;;;;;4993952;28;20474;-79
2024/03/12 08:27:44;;;;;;;8.75;3.88;;;;;;;;;;4997627;28;20037;-82
2024/03/12 08:30:11;;;;;;;5.97;3.53;;;;;;;;;;4981029;28;20041;-80
2024/03/12 08:32:41;;;;;;;9.40;3.33;;;;;;;;;;4989298;28;20370;-80
2024/03/12 08:35:08;;;;;;;9.93;3.45;;;;;;;;;;4978408;28;20468;-82
2024/03/12 08:37:34;;;;;;;7.78;3.50;;;;;;;;;;4984600;28;20388;-81
2024/03/12 08:40:00;;;;;;;6.13;3.30;;;;;;;;;;4983222;28;20021;-81
2024/03/12 08:42:27;;;;;;;7.20;3.40;;;;;;;;;;4973554;28;20038;-81
2024/03/12 08:44:54;;;;;;;7.22;3.17;;;;;;;;;;4993646;28;20358;-80
2024/03/12 08:47:20;;;;;;;7.28;3.60;;;;;;;;;;5006572;28;20049;-80
2024/03/12 08:49:46;;;;;;;8.85;3.60;;;;;;;;;;5012316;28;20604;-82
2024/03/12 08:52:11;;;;;;;4.97;2.58;;;;;;;;;;4993803;28;20049;-82
2024/03/12 08:54:37;;;;;;;8.27;3.10;;;;;;;;;;5001129;28;20503;-82
2024/03/12 08:57:03;;;;;;;9.20;3.40;;;;;;;;;;4973609;28;20027;-82
2024/03/12 08:59:29;;;;;;;5.00;2.90;;;;;;;;;;5012626;28;20499;-82
2024/03/12 09:01:57;;;;;;;9.52;3.35;;;;;;;;;;4975681;28;20038;-82
2024/03/12 09:04:27;;;;;;;6.95;3.10;;;;;;;;;;4995011;28;20022;-82
2024/03/12 09:06:53;;;;;;;7.95;3.50;;;;;;;;;;4992713;28;20117;-82
2024/03/12 09:09:21;;;;;;;7.93;3.65;;;;;;;;;;5021198;28;20713;-83
2024/03/12 09:11:57;;;;;;;6.32;3.10;;;;;;;;;;4982463;28;20508;-82
2024/03/12 09:14:24;;;;;;;8.27;2.80;;;;;;;;;;4983356;28;20098;-81
2024/03/12 09:16:54;;;;;;;6.95;3.17;;;;;;;;;;5006592;28;20579;-82
2024/03/12 09:19:24;;;;;;;7.45;3.30;;;;;;;;;;4992409;28;20069;-83
2024/03/12 09:22:06;;;;;;;6.30;3.55;;;;;;;;;;5019314;28;20069;-81
2024/03/12 09:24:32;;;;;;;5.35;2.88;;;;;;;;;;5000926;28;20038;-81
2024/03/12 09:26:58;;;;;;;5.38;3.10;;;;;;;;;;4980046;28;20509;-82
2024/03/12 09:29:23;;;;;;;5.45;2.58;;;;;;;;;;5012560;28;20092;-80
2024/03/12 09:31:49;;;;;;;4.63;2.83;;;;;;;;;;4982411;28;20072;-81
2024/03/12 09:34:15;;;;;;;5.45;3.20;;;;;;;;;;5008951;28;20113;-83
2024/03/12 09:36:41;;;;;;;5.97;3.25;;;;;;;;;;4994340;28;20041;-81
2024/03/12 09:39:10;;;;;;;6.20;2.90;;;;;;;;;;4981495;28;20161;-82
2024/03/12 09:41:38;;;;;;;5.93;2.90;;;;;;;;;;4995752;28;20029;-82
2024/03/12 09:44:07;;;;;;;7.82;3.10;;;;;;;;;;5011882;28;20033;-82
2024/03/12 09:46:36;;;;;;;6.63;3.72;;;;;;;;;;4995235;28;20033;-83
2024/03/12 09:49:02;;;;;;;6.78;3.50;;;;;;;;;;5005017;28;20031;-82
2024/03/12 09:51:28;;;;;;;7.85;3.58;;;;;;;;;;5000787;28;20033;-82
2024/03/12 09:53:54;;;;;;;6.07;3.42;;;;;;;;;;5015345;28;20044;-81
2024/03/12 09:56:20;;;;;;;7.82;3.58;;;;;;;;;;4995804;28;20042;-81
2024/03/12 09:58:48;;;;;;;7.72;3.47;;;;;;;;;;4995982;28;20117;-82
2024/03/12 10:01:14;;;;;;;6.70;3.70;;;;;;;;;;5002534;28;20029;-81
2024/03/12 10:03:41;;;;;;;8.10;4.03;;;;;;;;;;5007682;28;20049;-81
2024/03/12 10:06:06;;;;;;;7.32;3.72;;;;;;;;;;5003209;28;20037;-82
2024/03/12 10:08:34;;;;;;;8.60;4.43;;;;;;;;;;4991465;28;20041;-82
2024/03/12 10:11:02;;;;;;;8.73;3.75;;;;;;;;;;5009690;28;20041;-83
2024/03/12 10:13:28;;;;;;;13.30;3.95;;;;;;;;;;5013594;28;20030;-83
2024/03/12 10:15:59;;;;;;;6.88;4.07;;;;;;;;;;5014287;28;20061;-82
2024/03/12 10:18:27;;;;;;;7.35;4.38;;;;;;;;;;5028950;28;20048;-83
2024/03/12 10:20:57;;;;;;;6.90;3.83;;;;;;;;;;5015700;28;20065;-82
2024/03/12 10:23:25;;;;;;;7.35;3.97;;;;;;;;;;5014888;28;20038;-81
2024/03/12 10:25:51;;;;;;;6.55;3.33;;;;;;;;;;4987065;28;20091;-81
2024/03/12 10:28:22;;;;;;;5.97;3.60;;;;;;;;;;5015961;28;20026;-82
2024/03/12 10:30:48;;;;;;;7.50;3.90;;;;;;;;;;4999682;28;20034;-82
2024/03/12 10:33:17;;;;;;;7.68;4.07;;;;;;;;;;5009455;28;20092;-82
2024/03/12 10:35:44;;;;;;;7.38;3.97;;;;;;;;;;5004841;28;20066;-83
2024/03/12 10:38:12;;;;;;;6.88;3.60;;;;;;;;;;4996792;28;20041;-81
2024/03/12 10:40:38;;;;;;;9.50;3.92;;;;;;;;;;4997057;28;20073;-81
2024/03/12 10:43:06;;;;;;;7.20;4.15;;;;;;;;;;5013335;28;20034;-81
2024/03/12 10:45:32;;;;;;;6.88;3.38;;;;;;;;;;5003156;28;20061;-82
2024/03/12 10:47:59;;;;;;;6.57;3.70;;;;;;;;;;5014123;28;20050;-82
2024/03/12 10:50:31;;;;;;;9.82;3.88;;;;;;;;;;4996380;28;20042;-82
2024/03/12 10:52:58;;;;;;;6.90;3.92;;;;;;;;;;5012158;28;20050;-82
2024/03/12 10:55:32;;;;;;;5.82;3.53;;;;;;;;;;5006407;28;20023;-82
2024/03/12 10:58:06;;;;;;;8.88;3.50;;;;;;;;;;5000986;28;20385;-82
2024/03/12 11:00:32;;;;;;;8.45;4.15;;;;;;;;;;5008172;28;20499;-83
2024/03/12 11:03:11;;;;;;;6.85;4.00;;;;;;;;;;5012232;28;20075;-82
2024/03/12 11:05:39;;;;;;;5.95;3.70;;;;;;;;;;5040886;28;20030;-82
2024/03/12 11:08:09;;;;;;;5.93;3.38;;;;;;;;;;4999114;28;20029;-83
2024/03/12 11:10:36;;;;;;;7.85;3.78;;;;;;;;;;4987863;28;20066;-83
2024/03/12 11:13:06;;;;;;;9.75;4.00;;;;;;;;;;4977401;28;20049;-83
2024/03/12 11:15:40;;;;;;;7.68;3.40;;;;;;;;;;5010997;28;20101;-83
2024/03/12 11:18:09;;;;;;;8.02;4.00;;;;;;;;;;5026382;28;20026;-83
2024/03/12 11:20:48;;;;;;;7.38;3.70;;;;;;;;;;5010086;28;20441;-83
2024/03/12 11:23:23;;;;;;;7.20;3.35;;;;;;;;;;4978067;28;20042;-82
2024/03/12 11:25:56;;;;;;;6.55;3.33;;;;;;;;;;5009057;28;20061;-84
2024/03/12 11:28:24;;;;;;;6.55;3.67;;;;;;;;;;4994392;28;20034;-82
2024/03/12 11:31:01;;;;;;;9.63;4.07;;;;;;;;;;4994809;28;20114;-82
2024/03/12 11:33:45;;;;;;;7.40;3.70;;;;;;;;;;5026046;28;20064;-83
2024/03/12 11:36:28;;;;;;;9.23;4.82;;;;;;;;;;5034981;28;20268;-82
2024/03/12 11:38:58;;;;;;;7.80;4.22;;;;;;;;;;5034260;28;20114;-82
2024/03/12 11:41:45;;;;;;;8.40;4.13;;;;;;;;;;5020568;28;20062;-83
2024/03/12 11:44:30;;;;;;;7.85;4.15;;;;;;;;;;4997617;28;20031;-82
2024/03/12 11:46:56;;;;;;;8.13;4.28;;;;;;;;;;4980179;28;20106;-82
2024/03/12 11:49:31;;;;;;;8.55;3.60;;;;;;;;;;5020810;28;20057;-83
2024/03/12 11:51:59;;;;;;;6.93;3.97;;;;;;;;;;5007437;28;20038;-83
2024/03/12 11:54:42;;;;;;;6.85;3.88;;;;;;;;;;5019280;28;20081;-81
2024/03/12 11:57:20;;;;;;;11.77;4.30;;;;;;;;;;5006506;28;20216;-83
2024/03/12 11:59:50;;;;;;;6.53;3.72;;;;;;;;;;4999138;28;20038;-83
2024/03/12 12:02:20;;;;;;;10.35;3.80;;;;;;;;;;5013113;28;20042;-83
2024/03/12 12:04:54;;;;;;;7.95;4.22;;;;;;;;;;4998859;28;20015;-81
2024/03/12 12:07:22;;;;;;;6.72;3.95;;;;;;;;;;5001743;28;20031;-83
2024/03/12 12:09:49;;;;;;;;;;;;;;;;;;5002188;28;20057;-82
2024/03/12 12:12:17;;;;;;;8.63;4.40;;;;;;;;;;5037285;28;19963;-82
2024/03/12 12:14:57;;;;;;;6.60;4.30;;;;;;;;;;4993401;28;20528;-82
2024/03/12 12:17:26;;;;;;;7.72;4.35;;;;;;;;;;4990752;28;20046;-82
2024/03/12 12:20:04;;;;;;;8.90;4.40;;;;;;;;;;5012165;28;20038;-82
2024/03/12 12:22:35;;;;;;;9.85;4.55;;;;;;;;;;5020312;28;20092;-81
2024/03/12 12:25:02;;;;;;;12.77;5.85;;;;;;;;;;5002463;28;20030;-83
2024/03/12 12:27:28;;;;;;;10.73;4.85;;;;;;;;;;4990602;28;20097;-81
2024/03/12 12:29:55;;;;;;;9.05;4.70;;;;;;;;;;4990057;28;20030;-82
2024/03/12 12:32:22;;;;;;;7.55;4.38;;;;;;;;;;4992760;28;20052;-83
2024/03/12 12:34:48;;;;;;;7.47;4.13;;;;;;;;;;5010840;28;20030;-83
2024/03/12 12:37:16;;;;;;;9.30;4.38;;;;;;;;;;4992559;28;20034;-83
2024/03/12 12:39:47;;;;;;;9.13;5.20;;;;;;;;;;5017213;28;20410;-83
2024/03/12 12:42:14;;;;;;;8.20;4.57;;;;;;;;;;4993840;28;20053;-83
2024/03/12 12:44:40;;;;;;;7.72;4.07;;;;;;;;;;5004156;28;20128;-83
2024/03/12 12:47:07;;;;;;;9.15;4.55;;;;;;;;;;5011076;28;20149;-82
2024/03/12 12:49:35;;;;;;;10.20;4.90;;;;;;;;;;5007475;28;20102;-83
2024/03/12 12:52:03;;;;;;;7.38;4.07;;;;;;;;;;4993124;28;20042;-83
2024/03/12 12:54:32;;;;;;;8.80;4.70;;;;;;;;;;4993864;28;20041;-83
2024/03/12 12:57:00;;;;;;;9.88;5.32;;;;;;;;;;5005713;28;20045;-83
2024/03/12 12:59:32;;;;;;;8.80;4.68;;;;;;;;;;5007857;28;20076;-82
2024/03/12 13:02:11;;;;;;;9.50;6.05;;;;;;;;;;5019632;28;20034;-83
2024/03/12 13:04:36;;;;;;;8.27;4.70;;;;;;;;;;5021918;28;20026;-82
2024/03/12 13:07:02;;;;;;;14.38;6.10;;;;;;;;;;4992109;28;20030;-84
2024/03/12 13:09:32;;;;;;;8.68;5.03;;;;;;;;;;5008068;28;20050;-83
2024/03/12 13:11:59;;;;;;;10.82;5.93;;;;;;;;;;5026925;28;20053;-82
2024/03/12 13:14:27;;;;;;;12.20;5.95;;;;;;;;;;5011906;28;20030;-83
2024/03/12 13:16:54;;;;;;;10.60;5.47;;;;;;;;;;5004694;28;20040;-82
2024/03/12 13:19:19;;;;;;;10.90;5.80;;;;;;;;;;5009894;28;20030;-82
2024/03/12 13:21:45;;;;;;;11.88;6.30;;;;;;;;;;5014003;28;20044;-82
2024/03/12 13:24:11;;;;;;;10.20;6.05;;;;;;;;;;5009636;28;20038;-83
2024/03/12 13:26:38;;;;;;;11.73;6.10;;;;;;;;;;5011187;28;20030;-83
2024/03/12 13:29:05;;;;;;;11.15;6.22;;;;;;;;;;4998335;28;20496;-84
2024/03/12 13:31:31;;;;;;;13.23;7.32;;;;;;;;;;4998618;28;20034;-82
2024/03/12 13:33:58;;;;;;;12.45;6.18;;;;;;;;;;5014436;28;20041;-83
2024/03/12 13:36:25;;;;;;;11.25;5.90;;;;;;;;;;5014342;28;20037;-82
2024/03/12 13:38:52;;;;;;;11.23;6.32;;;;;;;;;;4993280;28;20281;-82
2024/03/12 13:41:18;;;;;;;10.55;6.13;;;;;;;;;;4996358;28;20053;-83
2024/03/12 13:43:44;;;;;;;12.43;6.65;;;;;;;;;;5001002;28;20022;-83
2024/03/12 13:46:12;;;;;;;10.73;6.70;;;;;;;;;;4998104;28;20034;-84
2024/03/12 13:48:39;;;;;;;12.45;6.47;;;;;;;;;;5015544;28;20033;-83
2024/03/12 13:51:09;;;;;;;12.43;6.63;;;;;;;;;;5016471;28;20048;-83
2024/03/12 13:53:36;;;;;;;11.32;6.53;;;;;;;;;;5001294;28;20037;-83
2024/03/12 13:56:04;;;;;;;15.17;6.20;;;;;;;;;;5012933;28;20121;-83
2024/03/12 13:58:34;;;;;;;12.55;5.78;;;;;;;;;;4995588;28;20050;-84
2024/03/12 14:01:02;;;;;;;9.88;5.78;;;;;;;;;;5030243;28;20049;-82
2024/03/12 14:03:28;;;;;;;10.98;5.72;;;;;;;;;;4994374;28;20049;-83
2024/03/12 14:05:55;;;;;;;12.57;6.43;;;;;;;;;;5034277;28;20026;-83
2024/03/12 14:08:24;;;;;;;10.80;6.35;;;;;;;;;;5004473;28;20022;-83
2024/03/12 14:10:51;;;;;;;11.45;6.47;;;;;;;;;;5000652;28;20052;-84
2024/03/12 14:13:21;;;;;;;12.48;7.28;;;;;;;;;;5016766;28;20033;-83
2024/03/12 14:15:47;;;;;;;10.02;6.35;;;;;;;;;;5017105;28;20029;-83
2024/03/12 14:18:15;;;;;;;13.02;6.30;;;;;;;;;;5031895;28;20105;-82
2024/03/12 14:20:42;;;;;;;11.35;6.88;;;;;;;;;;5017518;28;20057;-84
2024/03/12 14:23:09;;;;;;;12.35;6.70;;;;;;;;;;5017313;28;20030;-83
2024/03/12 14:25:38;;;;;;;9.63;5.93;;;;;;;;;;5028243;28;20026;-84
2024/03/12 14:28:05;;;;;;;10.93;6.55;;;;;;;;;;5019015;28;20034;-83
2024/03/12 14:30:31;;;;;;;14.20;6.75;;;;;;;;;;5017864;28;20030;-83
2024/03/12 14:32:56;;;;;;;10.93;6.28;;;;;;;;;;5001298;28;20064;-83
2024/03/12 14:35:24;;;;;;;10.30;6.55;;;;;;;;;;5014071;28;20026;-83
2024/03/12 14:37:50;;;;;;;10.27;6.68;;;;;;;;;;5028046;28;20029;-83
2024/03/12 14:40:16;;;;;;;12.40;7.57;;;;;;;;;;5013626;28;20105;-81
2024/03/12 14:42:43;;;;;;;12.90;6.70;;;;;;;;;;5027770;28;20021;-83
2024/03/12 14:45:10;;;;;;;9.98;6.47;;;;;;;;;;4996471;28;20029;-82